Wheatland, ND (58079)

12:08 AM CDT on September 02, 2015 (GMT -0500)
Home of the Absaraka Crows | | Change Station
CLOSE
Current Station
Personal Weather Station
Location: Absaraka, ND
Elevation: 1066 ft
Nearby Weather Stations

Elev 1066 ft 46.98 °N, 97.39 °W | Updated 6 seconds ago

Clear
Clear
69.6 °F
Feels Like 69.6 °F
N
0.0
Wind Variable Wind from SE
Gusts 0.0 mph

Today
High -- | Low -- °F
--% Chance of Precip.
Yesterday
High -- | Low -- °F
Precip. -- in
6:50 AM 8:07 PM
Waning Gibbous, 83% visible
Pressure 29.82 in
Visibility 9.0 miles
Clouds Clear
Dew Point 69 °F
Humidity 99%
Rainfall 0.00 in
Snow Depth Not available.
UV 0 out of 12
Pollen 10.60 out of 12
Air Quality Not available.
Flu Activity Not available.
METAR KFAR 020453Z 15009KT 9SM CLR 24/21 A2983 RMK AO2 SLP097 T02390211
Pressure 29.82 in
Visibility 9.0 miles
Clouds Clear
Dew Point 69 °F
Humidity 99%
Rainfall 0.00 in
Snow Depth Not available.
UV 0 out of 12
Pollen 10.60 out of 12
Air Quality Not available.
Flu Activity Not available.
METAR KFAR 020453Z 15009KT 9SM CLR 24/21 A2983 RMK AO2 SLP097 T02390211

10-Day Weather Forecast

×

Almanac

Astronomy

Sep. 02, 2015 Rise Set
Actual Time
Civil Twilight
Nautical Twilight
Astronomical Twilight
Moon
Length of Visible Light
Length of Day
Tomorrow will be .
, % of the Moon is Illuminated

Today's Extremes

State Highs State Lows

Community

WunderPhotos

Upload Photos

1,851,705 photos uploaded!

WunderBlogs® & News

Nearby

Air Quality

  Air Quality AQ Index Pollutant
Not available.

Snow Depth

Station Depth Elevation

Earthquake Activity

City Distance Mag. Time & Date
Minimum magnitude displayed is 2.5.

Coastal Water Temperatures

Place Temperature

Stations

Nearby Weather Stations

Station Location Temp. Windchill Dew Point Humidity Wind Precip. Elev Updated Type